EGKB/BQH METAR and TAF weather

Enter ICAO airport designator
Station Type Date Time Source
EGKB METAR 2021/09/24 20:20 UTC NOAA

EGKB 242020Z 20009KT 9999 FEW031 15/14 Q1016


Station Type Date Time Source
EGKB Decoded METAR 2021/09/24 20:20 UTC NOAA

Biggin Hill , United Kingdom (EGKB) 51-19N 000-02E
Sep 24, 2021 - 04:20 PM EDT / 2021.09.24 2020 UTC
Wind: from the SSW (200 degrees) at 10 MPH (9 KT):0
Visibility: greater than 7 mile(s):0
Sky conditions: mostly clear
Temperature: 59 F (15 C)
Dew Point: 57 F (14 C)
Relative Humidity: 93%
Pressure (altimeter): 30.00 in. Hg (1016 hPa)
ob: EGKB 242020Z 20009KT 9999 FEW031 15/14 Q1016
cycle: 20

Station Type Date Time Source
EGKB TAF 2020/08/09 21:40 UTC NOAA

TAF EGKB 092127Z 0921/1021 CNL

Example: see airport list